createdAt,value
2023-12-11T00:00:09.154Z,0
2023-12-11T00:05:28.500Z,0
2023-12-11T00:10:47.683Z,0
2023-12-11T00:16:06.582Z,0
2023-12-11T00:21:25.846Z,0
2023-12-11T00:26:45.088Z,0
2023-12-11T00:32:03.978Z,0
2023-12-11T00:37:23.903Z,0
2023-12-11T00:42:43.332Z,0
2023-12-11T00:48:01.181Z,0
2023-12-11T00:53:20.863Z,0
2023-12-11T00:58:40.414Z,0
2023-12-11T01:03:59.969Z,0
2023-12-11T01:09:19.645Z,0
2023-12-11T01:14:38.200Z,0
2023-12-11T01:19:57.284Z,0
2023-12-11T01:25:16.728Z,0
2023-12-11T01:30:35.708Z,0
2023-12-11T01:35:55.153Z,0
2023-12-11T01:41:14.152Z,0
2023-12-11T01:46:33.693Z,0
2023-12-11T01:51:53.535Z,0
2023-12-11T01:57:12.111Z,0
2023-12-11T02:02:31.128Z,0
2023-12-11T02:07:50.355Z,0
2023-12-11T02:13:09.413Z,0
2023-12-11T02:18:28.300Z,0
2023-12-11T02:29:06.361Z,0
2023-12-11T02:34:25.919Z,0
2023-12-11T02:39:44.641Z,0
2023-12-11T02:45:03.897Z,0
2023-12-11T02:50:23.050Z,0
2023-12-11T02:55:42.576Z,0
2023-12-11T03:01:01.942Z,0
2023-12-11T03:06:21.653Z,0
2023-12-11T03:11:40.059Z,0
2023-12-11T03:16:59.141Z,0
2023-12-11T03:22:19.716Z,0
2023-12-11T03:27:37.206Z,0
2023-12-11T03:32:56.644Z,0
2023-12-11T03:38:15.968Z,0
2023-12-11T03:43:35.163Z,0
2023-12-11T03:48:54.929Z,0
2023-12-11T03:54:14.193Z,0
2023-12-11T03:59:33.230Z,0
2023-12-11T04:04:52.427Z,0
2023-12-11T04:10:11.782Z,0
2023-12-11T04:20:49.894Z,0
2023-12-11T04:26:08.549Z,0
2023-12-11T04:31:27.815Z,0
2023-12-11T04:36:47.044Z,0
2023-12-11T04:42:06.288Z,0
2023-12-11T04:52:44.486Z,0
2023-12-11T04:58:03.904Z,0
2023-12-11T05:03:23.374Z,0
2023-12-11T05:08:43.345Z,0
2023-12-11T05:14:02.785Z,0
2023-12-11T05:19:21.731Z,0
2023-12-11T05:24:40.857Z,0
2023-12-11T05:30:00.406Z,0
2023-12-11T05:35:19.845Z,0
2023-12-11T05:40:39.140Z,0
2023-12-11T05:45:58.366Z,0
2023-12-11T05:51:17.467Z,0
2023-12-11T05:56:36.649Z,0
2023-12-11T06:01:55.455Z,0
2023-12-11T06:07:14.563Z,0
2023-12-11T06:12:33.798Z,0
2023-12-11T06:17:53.344Z,0
2023-12-11T06:23:12.094Z,0
2023-12-11T06:28:31.212Z,0
2023-12-11T06:33:50.177Z,0
2023-12-11T06:39:09.296Z,0
2023-12-11T06:44:28.766Z,0
2023-12-11T06:49:47.480Z,0
2023-12-11T06:55:06.042Z,1
2023-12-11T07:00:25.491Z,5
2023-12-11T07:05:45.345Z,15
2023-12-11T07:11:04.382Z,19.34
2023-12-11T07:21:43.175Z,23.24
2023-12-11T07:27:02.428Z,26.06
2023-12-11T07:32:21.819Z,24.21
2023-12-11T07:37:40.625Z,28.78
2023-12-11T07:43:00.022Z,33.33
2023-12-11T07:53:38.327Z,49.42
2023-12-11T07:58:57.825Z,52.88
2023-12-11T08:04:17.325Z,53.18
2023-12-11T08:09:36.497Z,51.05
2023-12-11T08:14:55.765Z,45.87
2023-12-11T08:20:14.443Z,49.73
2023-12-11T08:25:33.788Z,73.89
2023-12-11T08:30:53.796Z,79.51
2023-12-11T08:36:12.246Z,67.14
2023-12-11T08:41:31.398Z,54.52
2023-12-11T08:46:50.733Z,77.22
2023-12-11T08:52:09.627Z,89.7
2023-12-11T08:57:29.064Z,66.05
2023-12-11T09:02:47.895Z,78.53
2023-12-11T09:08:07.660Z,120.82
2023-12-11T09:13:29.137Z,142.09
2023-12-11T09:18:46.797Z,166.9
2023-12-11T09:24:05.757Z,140.76
2023-12-11T09:29:24.308Z,140.37
2023-12-11T09:34:43.906Z,176.83
2023-12-11T09:40:02.679Z,158.88
2023-12-11T09:45:21.900Z,187.24
2023-12-11T09:50:40.880Z,180.15
2023-12-11T09:56:00.213Z,195.47
2023-12-11T10:01:19.817Z,225.55
2023-12-11T10:11:57.152Z,210.17
2023-12-11T10:17:16.284Z,232.39
2023-12-11T10:22:35.250Z,221.57
2023-12-11T10:27:54.227Z,246.59
2023-12-11T10:33:13.055Z,272.14
2023-12-11T10:38:32.569Z,278.24
2023-12-11T10:44:01.466Z,274.97
2023-12-11T10:49:10.168Z,163.51
2023-12-11T10:54:29.581Z,255.04
2023-12-11T11:01:03.936Z,261.28
2023-12-11T11:10:27.512Z,184.18
2023-12-11T11:15:45.208Z,150.79
2023-12-11T11:21:04.079Z,158.97
2023-12-11T11:26:22.671Z,101.72
2023-12-11T11:31:42.000Z,228.59
2023-12-11T11:37:00.752Z,123.31
2023-12-11T11:42:19.565Z,97.35
2023-12-11T11:47:40.029Z,93.82
2023-12-11T11:52:58.599Z,119.96
2023-12-11T11:58:18.240Z,123.25
2023-12-11T12:03:37.277Z,105.93
2023-12-11T12:08:57.611Z,95.85
2023-12-11T12:14:15.801Z,90.42
2023-12-11T12:19:35.549Z,79.57
2023-12-11T12:24:54.689Z,108.04
2023-12-11T12:30:13.996Z,130.78
2023-12-11T12:35:33.723Z,114.04
2023-12-11T12:40:53.050Z,106.95
2023-12-11T12:46:12.269Z,173.27
2023-12-11T12:51:32.055Z,175.08
2023-12-11T12:56:51.168Z,82.56
2023-12-11T13:03:25.417Z,185.99
2023-12-11T13:12:49.643Z,133.26
2023-12-11T13:18:07.438Z,98.46
2023-12-11T13:23:25.671Z,92.2
2023-12-11T13:28:44.588Z,87.69
2023-12-11T13:34:04.315Z,103.72
2023-12-11T13:39:23.034Z,74.8
2023-12-11T13:44:41.820Z,46.84
2023-12-11T13:50:01.410Z,40.93
2023-12-11T14:00:40.126Z,40.74
2023-12-11T14:05:59.117Z,32.66
2023-12-11T14:16:37.209Z,31.75
2023-12-11T14:21:55.857Z,29.69
2023-12-11T14:27:14.953Z,24.88
2023-12-11T14:32:34.259Z,24.1
2023-12-11T14:37:53.204Z,20.96
2023-12-11T14:43:13.227Z,24.06
2023-12-11T14:48:31.785Z,21.73
2023-12-11T14:53:51.469Z,25.73
2023-12-11T14:59:10.450Z,20.24
2023-12-11T15:09:49.136Z,18.11
2023-12-11T15:15:08.560Z,14.34
2023-12-11T15:20:27.552Z,13
2023-12-11T15:25:46.839Z,5
2023-12-11T15:31:12.229Z,1
2023-12-11T15:36:26.317Z,0
2023-12-11T15:41:45.011Z,0
2023-12-11T15:47:04.858Z,0
2023-12-11T15:52:24.951Z,0
2023-12-11T15:54:40.167Z,0
2023-12-11T15:58:20.497Z,0
2023-12-11T16:03:40.341Z,0
2023-12-11T16:08:59.646Z,0
2023-12-11T16:14:18.252Z,0
2023-12-11T16:19:38.178Z,0
2023-12-11T16:24:57.737Z,0
2023-12-11T16:30:16.350Z,0
2023-12-11T16:40:54.899Z,0
2023-12-11T16:46:14.826Z,0
2023-12-11T16:51:33.681Z,0
2023-12-11T16:56:52.933Z,0
2023-12-11T17:02:11.712Z,0
2023-12-11T17:07:30.663Z,0
2023-12-11T17:12:49.970Z,0
2023-12-11T17:18:10.257Z,0
2023-12-11T17:23:28.120Z,0
2023-12-11T17:28:47.666Z,0
2023-12-11T17:39:26.881Z,0
2023-12-11T17:44:45.863Z,0
2023-12-11T17:55:24.544Z,0
2023-12-11T18:00:43.936Z,0
2023-12-11T18:06:02.690Z,0
2023-12-11T18:11:21.876Z,0
2023-12-11T18:16:40.940Z,0
2023-12-11T18:22:01.786Z,0
2023-12-11T18:27:20.345Z,0
2023-12-11T18:32:39.988Z,0
2023-12-11T18:37:59.256Z,0
2023-12-11T18:48:37.830Z,0
2023-12-11T18:53:56.781Z,0
2023-12-11T18:59:15.971Z,0
2023-12-11T19:04:35.332Z,0
2023-12-11T19:09:54.742Z,0
2023-12-11T19:15:14.155Z,0
2023-12-11T19:20:33.181Z,0
2023-12-11T19:25:52.983Z,0
2023-12-11T19:31:12.214Z,0
2023-12-11T19:36:30.806Z,0
2023-12-11T19:47:09.513Z,0
2023-12-11T19:52:28.946Z,0
2023-12-11T19:57:47.576Z,0
2023-12-11T20:03:07.399Z,0
2023-12-11T20:08:26.554Z,0
2023-12-11T20:13:46.363Z,0
2023-12-11T20:19:05.444Z,0
2023-12-11T20:24:24.654Z,0
2023-12-11T20:29:44.537Z,0
2023-12-11T20:40:23.222Z,0
2023-12-11T20:45:42.998Z,0
2023-12-11T20:51:01.726Z,0
2023-12-11T20:56:21.053Z,0
2023-12-11T21:01:40.369Z,0
2023-12-11T21:12:18.961Z,0
2023-12-11T21:17:38.300Z,0
2023-12-11T21:22:58.079Z,0
2023-12-11T21:28:16.845Z,0
2023-12-11T21:33:35.678Z,0
2023-12-11T21:38:54.471Z,0
2023-12-11T21:44:13.480Z,0
2023-12-11T21:49:32.988Z,0
2023-12-11T21:54:52.229Z,0
2023-12-11T22:00:11.351Z,0
2023-12-11T22:10:49.467Z,0
2023-12-11T22:21:28.079Z,0
2023-12-11T22:26:46.872Z,0
2023-12-11T22:32:06.415Z,0
2023-12-11T22:37:25.367Z,0
2023-12-11T22:42:44.473Z,0
2023-12-11T22:48:03.391Z,0
2023-12-11T22:53:22.871Z,0
2023-12-11T22:58:42.603Z,0
2023-12-11T23:04:02.662Z,0
2023-12-11T23:09:21.712Z,0
2023-12-11T23:15:55.861Z,0
2023-12-11T23:20:00.002Z,0
2023-12-11T23:25:19.666Z,0
2023-12-11T23:35:57.510Z,0
2023-12-11T23:41:15.738Z,0
2023-12-11T23:46:34.624Z,0
2023-12-11T23:51:53.301Z,0
2023-12-11T23:57:13.156Z,0
